Terminal Aerodrome Forecast
Issued by NWS Rapid City, SD

Home | Current Version | Previous Version | Text Only | Print | Product List | Glossary On
Versions: 1 2 3 4 5 6 7 8 9 10 11 12 13 14 15 16 17 18 19 20
688
FTUS43 KUNR 222320
TAFRAP
TAF
KRAP 222320Z 2300/2324 15010KT P6SM SKC
     FM230300 08005KT P6SM SCT250
     FM231800 15014KT P6SM OVC100=

USA.gov is the U.S. government's official web portal to all federal, state and local government web resources and services.